WOLFEBORO: From 06/04/2019 02:00 to 06/19/2019 00:00

Date PRECIPITATION INCREMENT [IN] AIR TEMPERATURE [DEGF] RELATIVE HUMIDITY [%] BAROMETRIC PRESSURE [INHG] AVERAGE WIND SPEED [FT/S] MAXIMUM WIND SPEED [FT/S] MINIMUM WIND SPEED [FT/S] AVERAGE WIND DIRECTION [] MAXIMUM WIND DIRECTION [] MINIMUM WIND DIRECTION []
06/18/2019 13:00 0.00 -- -- 29.36 0.00 0.00 0.00 0.0 0.0 0.0
06/18/2019 12:00 0.00 70.0 29.5 29.37 0.00 0.00 0.00 0.0 0.0 0.0
06/18/2019 11:00 0.00 70.0 31.0 29.37 0.00 0.00 0.00 0.0 1.3 0.0
06/18/2019 10:00 0.00 68.0 39.9 29.37 0.00 0.00 0.00 0.0 0.0 0.0
06/18/2019 09:00 0.00 65.0 49.6 29.37 0.00 0.00 0.00 0.0 16.3 0.0
06/18/2019 08:00 0.00 63.0 62.4 29.37 0.00 0.00 0.00 0.0 0.0 0.0
06/18/2019 07:00 0.00 60.0 72.7 29.37 0.00 0.00 0.00 0.0 0.0 0.0
06/18/2019 06:00 0.00 59.0 76.3 29.37 0.00 0.00 0.00 0.0 0.0 0.0
06/18/2019 05:00 0.00 59.0 75.0 29.37 0.00 0.00 0.00 0.0 0.0 0.0
06/18/2019 04:00 0.00 59.0 74.7 29.36 0.00 0.00 0.00 0.0 0.0 0.0
06/18/2019 03:00 0.00 59.0 72.8 29.38 0.00 0.00 0.00 0.0 6.5 0.0
06/18/2019 02:00 0.00 61.0 71.7 29.37 0.00 0.00 0.00 0.0 0.0 0.0
06/18/2019 01:00 0.00 62.0 69.9 29.36 0.00 0.00 0.00 0.0 0.0 0.0
06/18/2019 00:00 0.00 63.0 63.4 29.35 0.00 0.00 0.00 0.0 0.0 0.0
06/17/2019 23:00 0.00 65.0 60.0 29.34 0.00 0.00 0.00 0.0 22.8 0.0
06/17/2019 22:00 0.00 67.0 54.1 29.33 0.00 0.00 0.00 0.3 32.5 0.0
06/17/2019 21:00 0.00 74.0 23.1 29.32 0.00 0.00 0.00 0.0 37.5 0.0
06/17/2019 20:00 0.00 77.0 18.0 29.31 0.00 0.00 0.00 0.0 50.0 0.0
06/17/2019 19:00 0.00 84.0 9.4 29.31 0.00 0.00 0.00 0.0 34.3 0.0
06/17/2019 18:00 0.00 85.0 9.8 29.32 0.00 0.00 0.00 0.0 40.8 0.0
06/17/2019 17:00 0.00 83.0 10.8 29.32 0.00 0.00 0.00 0.0 44.5 0.0
06/17/2019 16:00 0.00 82.0 13.0 29.32 0.00 0.00 0.00 0.0 53.5 0.0
06/17/2019 15:00 0.00 78.0 18.8 29.32 0.00 0.00 0.00 0.0 44.0 0.0
06/17/2019 14:00 0.00 76.0 21.5 29.33 0.00 0.00 0.00 0.0 46.0 0.0
06/17/2019 13:00 0.00 72.0 37.1 29.33 0.00 0.00 0.00 0.5 60.8 0.0
06/17/2019 12:00 0.00 68.0 42.7 29.33 0.00 0.00 0.00 0.3 44.0 0.0
06/17/2019 11:00 0.00 65.0 60.0 29.34 0.00 0.00 0.00 0.3 29.5 0.0
06/17/2019 10:00 0.00 63.0 73.2 29.33 0.00 0.00 0.00 0.0 14.8 0.0
06/17/2019 09:00 0.00 60.0 82.4 29.31 0.00 0.00 0.00 0.0 17.5 0.0
06/17/2019 08:00 0.00 59.0 85.6 29.29 0.00 0.00 0.00 0.0 6.0 0.0
06/17/2019 07:00 0.00 57.0 86.6 29.28 0.00 0.00 0.00 3.3 29.0 0.0
06/17/2019 06:00 0.00 58.0 86.0 29.26 0.00 0.00 0.00 0.0 17.5 0.0
06/17/2019 05:00 0.00 61.0 86.2 29.23 0.00 0.00 0.00 1.8 18.5 0.0
06/17/2019 04:00 0.00 63.0 87.7 29.21 0.00 0.00 0.00 6.5 30.3 0.3
06/17/2019 03:00 0.00 63.0 88.0 29.21 0.00 0.00 0.00 11.5 61.3 0.0
06/17/2019 02:00 0.01 63.0 87.7 29.20 0.00 0.00 0.00 0.0 5.8 0.0
06/17/2019 01:00 0.00 63.0 87.3 29.20 0.00 0.00 0.00 0.0 9.5 0.0
06/17/2019 00:00 0.00 64.0 86.3 29.20 0.00 0.00 0.00 0.0 10.3 0.0
06/16/2019 23:00 0.02 64.0 85.5 29.20 0.00 0.00 0.00 0.0 0.0 0.0
06/16/2019 22:00 0.04 66.0 84.8 29.20 0.00 0.00 0.00 0.0 6.3 0.0
06/16/2019 21:00 0.00 67.0 84.3 29.20 0.00 0.00 0.00 0.0 0.0 0.0
06/16/2019 20:00 0.00 68.0 82.0 29.20 0.00 0.00 0.00 0.0 5.5 0.0
06/16/2019 19:00 0.00 68.0 83.4 29.19 0.00 0.00 0.00 0.0 6.0 0.0
06/16/2019 18:00 0.00 68.0 83.3 29.20 0.00 0.00 0.00 0.3 27.5 0.0
06/16/2019 17:00 0.03 67.0 83.0 29.21 0.00 0.00 0.00 0.3 32.3 0.0
06/16/2019 16:00 0.04 68.0 80.6 29.22 0.00 0.00 0.00 0.0 30.8 0.0
06/16/2019 15:00 0.02 67.0 79.0 29.23 0.00 0.00 0.00 0.0 25.8 0.0
06/16/2019 14:00 0.01 68.0 75.5 29.23 0.00 0.00 0.00 0.0 32.5 0.0
06/16/2019 13:00 0.00 69.0 66.2 29.23 0.00 0.00 0.00 0.0 45.8 0.0
06/16/2019 12:00 0.00 70.0 58.3 29.23 0.00 0.00 0.00 0.8 81.0 0.0
06/16/2019 11:00 0.00 69.0 56.0 29.23 0.00 0.00 0.00 0.3 62.3 0.0
06/16/2019 10:00 0.00 69.0 56.7 29.23 0.00 0.00 0.00 0.0 35.5 0.0
06/16/2019 09:00 0.00 67.0 57.9 29.23 0.00 0.00 0.00 0.0 23.5 0.0
06/16/2019 08:00 0.00 67.0 57.2 29.23 0.00 0.00 0.00 0.3 53.0 0.0
06/16/2019 07:00 0.00 67.0 52.7 29.22 0.00 0.00 0.00 0.3 47.0 0.0
06/16/2019 06:00 0.00 67.0 48.1 29.20 0.00 0.00 0.00 0.0 38.8 0.0
06/16/2019 05:00 0.00 68.0 43.8 29.20 0.00 0.00 0.00 0.3 45.0 0.0
06/16/2019 04:00 0.00 68.0 39.8 29.20 0.00 0.00 0.00 0.3 64.3 0.0
06/16/2019 03:00 0.00 69.0 33.1 29.20 0.00 0.00 0.00 0.0 55.3 0.0
06/16/2019 02:00 0.00 70.0 32.8 29.21 0.00 0.00 0.00 0.3 62.8 0.0
06/16/2019 01:00 0.00 71.0 29.8 29.21 0.00 0.00 0.00 0.0 45.0 0.0
06/16/2019 00:00 0.00 71.0 35.5 29.22 0.00 0.00 0.00 0.8 70.5 0.0
06/15/2019 23:00 0.00 72.0 32.9 29.22 0.00 0.00 0.00 0.3 64.5 0.0
06/15/2019 22:00 0.00 73.0 23.4 29.22 0.00 0.00 0.00 0.3 58.8 0.0
06/15/2019 21:00 0.00 74.0 17.5 29.22 0.00 0.00 0.00 0.5 60.8 0.0
06/15/2019 20:00 0.00 76.0 13.3 29.22 0.00 0.00 0.00 0.0 49.5 0.0
06/15/2019 19:00 0.00 78.0 12.7 29.22 0.00 0.00 0.00 0.3 72.0 0.0
06/15/2019 18:00 0.00 84.0 8.1 29.24 0.00 0.00 0.00 0.8 67.3 0.0
06/15/2019 17:00 0.00 85.0 7.8 29.26 0.00 0.00 0.00 0.8 79.5 0.0
06/15/2019 16:00 0.00 80.0 8.1 29.29 0.00 0.00 0.00 0.5 75.5 0.0
06/15/2019 15:00 0.00 80.0 10.9 29.31 0.00 0.00 0.00 0.0 31.5 0.0
06/15/2019 14:00 0.00 76.0 17.4 29.34 0.00 0.00 0.00 0.0 51.8 0.0
06/15/2019 13:00 0.00 73.0 23.1 29.38 0.00 0.00 0.00 0.0 46.3 0.0
06/15/2019 12:00 0.00 69.0 36.2 29.40 0.00 0.00 0.00 0.0 40.3 0.0
06/15/2019 11:00 0.00 64.0 47.2 29.41 0.00 0.00 0.00 0.0 34.0 0.0
06/15/2019 10:00 0.00 61.0 61.0 29.43 0.00 0.00 0.00 0.0 35.5 0.0
06/15/2019 09:00 0.00 59.0 62.4 29.42 0.00 0.00 0.00 0.0 16.8 0.0
06/15/2019 08:00 0.00 57.0 65.0 29.41 0.00 0.00 0.00 0.0 26.5 0.0
06/15/2019 07:00 0.00 56.0 68.8 29.39 0.00 0.00 0.00 0.0 24.0 0.0
06/15/2019 06:00 0.00 56.0 67.7 29.37 0.00 0.00 0.00 0.0 26.0 0.0
06/15/2019 05:00 0.00 56.0 67.4 29.36 0.00 0.00 0.00 0.3 29.0 0.0
06/15/2019 04:00 0.00 57.0 66.4 29.34 0.00 0.00 0.00 0.0 28.0 0.0
06/15/2019 03:00 0.00 56.0 70.9 29.32 0.00 0.00 0.00 0.0 24.3 0.0
06/15/2019 02:00 0.00 57.0 68.7 29.30 0.00 0.00 0.00 0.0 19.3 0.0
06/15/2019 01:00 0.00 57.0 64.3 29.27 0.00 0.00 0.00 0.3 31.0 0.0
06/15/2019 00:00 0.00 59.0 59.3 29.26 0.00 0.00 0.00 0.0 44.5 0.0
06/14/2019 23:00 0.00 59.0 55.4 29.25 0.00 0.00 0.00 0.3 48.8 0.0
06/14/2019 22:00 0.00 60.0 53.3 29.22 0.00 0.00 0.00 0.3 50.3 0.0
06/14/2019 21:00 0.00 61.0 48.8 29.19 0.00 0.00 0.00 0.0 42.8 0.0
06/14/2019 20:00 0.00 63.0 42.8 29.16 0.00 0.00 0.00 0.0 42.3 0.0
06/14/2019 19:00 0.00 67.0 36.8 29.14 0.00 0.00 0.00 0.0 42.5 0.0
06/14/2019 18:00 0.00 65.0 47.2 29.13 0.00 0.00 0.00 0.0 38.5 0.0
06/14/2019 17:00 0.00 65.0 48.0 29.12 0.00 0.00 0.00 0.0 45.8 0.0
06/14/2019 16:00 0.00 70.0 34.1 29.11 0.00 0.00 0.00 0.0 36.8 0.0
06/14/2019 15:00 0.00 68.0 47.4 29.11 0.00 0.00 0.00 0.0 48.0 0.0
06/14/2019 14:00 0.00 65.0 51.5 29.11 0.00 0.00 0.00 0.3 40.0 0.0
06/14/2019 13:00 0.00 67.0 50.8 29.12 0.00 0.00 0.00 0.0 52.0 0.0
06/14/2019 12:00 0.00 63.0 62.6 29.13 0.00 0.00 0.00 0.3 51.8 0.0
06/14/2019 11:00 0.00 60.0 69.8 29.13 0.00 0.00 0.00 0.0 26.3 0.0
06/14/2019 10:00 0.00 57.0 73.7 29.13 0.00 0.00 0.00 0.0 14.5 0.0
06/14/2019 09:00 0.00 56.0 77.5 29.13 0.00 0.00 0.00 0.0 9.0 0.0
06/14/2019 08:00 0.00 54.0 79.4 29.12 0.00 0.00 0.00 0.0 8.3 0.0
06/14/2019 07:00 0.00 52.0 83.3 29.11 0.00 0.00 0.00 0.0 3.8 0.0
06/14/2019 06:00 0.00 51.0 84.1 29.11 0.00 0.00 0.00 0.0 2.0 0.0
06/14/2019 05:00 0.00 51.0 85.2 29.10 0.00 0.00 0.00 0.0 1.0 0.0
06/14/2019 04:00 0.00 50.0 85.8 29.11 0.00 0.00 0.00 0.0 1.0 0.0
06/14/2019 03:00 0.00 50.0 86.5 29.11 0.00 0.00 0.00 0.0 6.5 0.0
06/14/2019 02:00 0.00 50.0 86.5 29.10 0.00 0.00 0.00 0.0 11.5 0.0
06/14/2019 01:00 0.00 51.0 86.5 29.09 0.00 0.00 0.00 0.3 18.5 0.0
06/14/2019 00:00 0.00 51.0 85.2 29.12 0.00 0.00 0.00 0.0 0.0 0.0
06/13/2019 23:00 0.00 52.0 82.7 29.13 0.00 0.00 0.00 0.0 0.0 0.0
06/13/2019 22:00 0.00 52.0 81.8 29.11 0.00 0.00 0.00 0.0 0.0 0.0
06/13/2019 21:00 0.00 51.0 80.8 29.12 0.00 0.00 0.00 0.0 0.0 0.0
06/13/2019 20:00 0.01 52.0 84.2 29.12 0.00 0.00 0.00 0.0 0.0 0.0
06/13/2019 19:00 0.01 52.0 84.0 29.16 0.00 0.00 0.00 0.0 6.5 0.0
06/13/2019 18:00 0.09 52.0 84.0 29.20 0.00 0.00 0.00 0.0 0.0 0.0
06/13/2019 17:00 0.04 51.0 82.3 29.25 0.00 0.00 0.00 0.0 0.0 0.0
06/13/2019 16:00 0.03 52.0 76.4 29.31 0.00 0.00 0.00 0.0 0.0 0.0
06/13/2019 15:00 0.09 53.0 73.2 29.37 0.00 0.00 0.00 0.0 0.0 0.0
06/13/2019 14:00 0.04 54.0 74.9 29.40 0.00 0.00 0.00 0.0 5.0 0.0
06/13/2019 13:00 0.00 58.0 59.4 29.41 0.00 0.00 0.00 0.0 0.0 0.0
06/13/2019 12:00 0.01 59.0 64.1 29.43 0.00 0.00 0.00 0.0 0.0 0.0
06/13/2019 11:00 0.01 58.0 63.5 29.43 0.00 0.00 0.00 0.0 0.0 0.0
06/13/2019 10:00 0.00 60.0 41.9 29.43 0.00 0.00 0.00 0.0 0.0 0.0
06/13/2019 09:00 0.00 60.0 51.6 29.45 0.00 0.00 0.00 0.8 86.5 0.0
06/13/2019 08:00 0.00 60.0 52.8 29.44 0.00 0.25 0.00 0.0 36.3 0.0
06/13/2019 07:00 0.00 58.0 54.3 29.45 0.00 0.50 0.00 0.0 22.5 0.0
06/13/2019 06:00 0.00 59.0 57.7 29.45 0.00 0.00 0.00 0.0 21.8 0.0
06/13/2019 05:00 0.00 59.0 54.0 29.45 0.00 0.00 0.00 0.0 22.5 0.0
06/13/2019 04:00 0.00 61.0 50.1 29.47 0.00 0.00 0.00 0.0 13.3 0.0
06/13/2019 03:00 0.00 60.0 51.2 29.48 0.00 2.25 0.00 0.0 24.8 0.0
06/13/2019 02:00 0.00 61.0 49.5 29.48 0.00 0.50 0.00 0.3 68.0 0.0
06/13/2019 01:00 0.00 63.0 39.5 29.49 0.00 2.75 0.00 0.0 44.3 0.0
06/13/2019 00:00 0.00 64.0 30.0 29.49 0.25 4.75 0.00 0.0 44.0 0.0
06/12/2019 23:00 0.00 65.0 25.9 29.48 0.00 6.25 0.00 0.0 24.5 0.0
06/12/2019 22:00 0.00 67.0 22.7 29.48 1.25 9.00 0.00 0.0 7.8 0.0
06/12/2019 21:00 0.00 71.0 19.4 29.46 1.50 9.25 0.00 0.0 15.5 0.0
06/12/2019 20:00 0.00 76.0 13.2 29.45 0.25 6.50 0.00 0.0 36.3 0.0
06/12/2019 19:00 0.00 84.0 5.9 29.45 0.75 8.00 0.00 0.0 53.8 0.0
06/12/2019 18:00 0.00 85.0 5.3 29.47 0.50 7.00 0.00 0.0 53.0 0.0
06/12/2019 17:00 0.00 83.0 5.1 29.48 0.00 3.00 0.00 0.0 52.5 0.0
06/12/2019 16:00 0.00 80.0 6.1 29.49 0.00 1.25 0.00 0.0 54.3 0.0
06/12/2019 15:00 0.00 76.0 9.3 29.50 1.00 6.75 0.00 0.0 49.5 0.0
06/12/2019 14:00 0.00 74.0 8.3 29.52 1.00 6.50 0.00 0.3 44.5 0.0
06/12/2019 13:00 0.00 70.0 12.2 29.53 2.00 7.75 0.00 0.0 48.0 0.0
06/12/2019 12:00 0.00 66.0 18.6 29.52 1.75 8.00 0.00 0.0 44.8 0.0
06/12/2019 11:00 0.00 64.0 31.6 29.52 1.75 7.00 0.00 0.3 48.3 0.0
06/12/2019 10:00 0.00 62.0 49.2 29.51 1.00 6.25 0.00 0.3 57.0 0.0
06/12/2019 09:00 0.00 59.0 55.7 29.50 1.75 8.75 0.00 0.3 48.5 0.0
06/12/2019 08:00 0.00 57.0 58.1 29.50 1.00 9.50 0.00 0.0 29.8 0.0
06/12/2019 07:00 0.00 55.0 65.1 29.48 0.00 1.75 0.00 0.0 35.0 0.0
06/12/2019 06:00 0.00 52.0 75.6 29.45 0.00 0.25 0.00 0.3 29.8 0.0
06/12/2019 05:00 0.00 52.0 72.1 29.42 0.00 0.00 0.00 0.0 0.0 0.0
06/12/2019 04:00 0.00 54.0 68.5 29.41 0.00 0.00 0.00 0.8 35.5 0.0
06/12/2019 03:00 0.00 54.0 65.0 29.40 0.00 0.25 0.00 0.0 9.0 0.0
06/12/2019 02:00 0.00 55.0 60.5 29.38 0.00 0.50 0.00 0.0 0.0 0.0
06/12/2019 01:00 0.00 56.0 61.3 29.37 0.00 0.25 0.00 0.3 33.3 0.0
06/12/2019 00:00 0.00 60.0 45.6 29.36 1.00 7.75 0.00 0.0 19.3 0.0
06/11/2019 23:00 0.00 62.0 37.7 29.36 4.00 16.50 0.00 0.0 25.3 0.0
06/11/2019 22:00 0.00 63.0 31.1 29.33 4.25 17.75 0.00 0.0 29.0 0.0
06/11/2019 21:00 0.00 64.0 30.6 29.31 3.50 14.00 0.00 0.0 22.3 0.0
06/11/2019 20:00 0.00 67.0 29.2 29.29 6.50 21.75 0.00 0.0 12.0 0.0
06/11/2019 19:00 0.00 72.0 19.1 29.27 8.00 22.75 0.00 0.0 19.3 0.0
06/11/2019 18:00 0.00 74.0 21.6 29.23 6.25 21.50 0.00 0.0 22.0 0.0
06/11/2019 17:00 0.00 73.0 33.0 29.20 5.25 19.25 0.00 0.0 23.5 0.0
06/11/2019 16:00 0.00 72.0 45.0 29.17 4.50 17.75 0.00 0.0 34.5 0.0
06/11/2019 15:00 0.00 70.0 54.7 29.16 3.25 13.25 0.00 0.0 42.3 0.0
06/11/2019 14:00 0.00 67.0 77.5 29.15 1.50 11.75 0.00 14.5 146.8 0.0
06/11/2019 13:00 0.02 67.0 83.6 29.14 0.00 4.25 0.00 0.3 35.8 0.0
06/11/2019 12:00 0.01 66.0 85.8 29.15 0.00 1.50 0.00 0.5 44.3 0.0
06/11/2019 11:00 0.00 66.0 84.6 29.16 0.00 0.50 0.00 23.5 53.5 8.0
06/11/2019 10:00 0.04 65.0 86.0 29.16 0.00 0.00 0.00 63.5 107.0 24.0
06/11/2019 09:00 0.15 64.0 86.7 29.16 0.00 1.25 0.00 0.3 29.0 0.0
06/11/2019 08:00 0.11 64.0 85.8 29.16 1.25 8.50 0.00 0.0 5.0 0.0
06/11/2019 07:00 0.01 64.0 85.2 29.18 0.75 6.00 0.00 0.0 0.0 0.0
06/11/2019 06:00 0.01 63.0 85.2 29.20 1.25 8.50 0.00 0.0 0.0 0.0
06/11/2019 05:00 0.06 63.0 85.1 29.23 0.75 5.50 0.00 0.0 9.0 0.0
06/11/2019 04:00 0.05 62.0 85.1 29.26 1.75 7.00 0.00 0.0 0.0 0.0
06/11/2019 03:00 0.05 63.0 83.3 29.30 1.50 7.00 0.00 0.0 0.0 0.0
06/11/2019 02:00 0.00 64.0 80.4 29.33 1.75 8.75 0.00 0.0 0.0 0.0
06/11/2019 01:00 0.00 66.0 68.5 29.35 0.75 6.50 0.00 0.0 0.0 0.0
06/11/2019 00:00 0.00 68.0 64.5 29.38 1.25 9.75 0.00 0.3 31.5 0.0
06/10/2019 23:00 0.00 68.0 58.6 29.40 1.25 8.50 0.00 0.0 10.8 0.0
06/10/2019 22:00 0.00 68.0 48.2 29.40 1.25 9.00 0.00 0.0 8.5 0.0
06/10/2019 21:00 0.00 70.0 40.2 29.40 2.75 10.50 0.00 0.0 0.0 0.0
06/10/2019 20:00 0.00 75.0 22.8 29.41 3.50 12.50 0.00 0.0 0.0 0.0
06/10/2019 19:00 0.00 83.0 5.6 29.41 2.75 12.75 0.00 0.0 1.8 0.0
06/10/2019 18:00 0.00 84.0 7.8 29.43 3.25 13.00 0.00 0.0 13.5 0.0
06/10/2019 17:00 0.00 88.0 5.9 29.45 3.25 13.25 0.00 0.0 8.5 0.0
06/10/2019 16:00 0.00 84.0 8.0 29.48 0.75 6.50 0.00 0.0 21.5 0.0
06/10/2019 15:00 0.00 82.0 8.5 29.50 1.00 8.25 0.00 0.5 36.8 0.0
06/10/2019 14:00 0.00 82.0 11.2 29.52 2.25 9.75 0.00 0.3 49.5 0.0
06/10/2019 13:00 0.00 78.0 15.3 29.53 1.50 9.25 0.00 0.0 35.8 0.0
06/10/2019 12:00 0.00 75.0 23.9 29.54 0.50 6.00 0.00 0.0 45.8 0.0
06/10/2019 11:00 0.00 72.0 43.1 29.55 0.00 0.50 0.00 0.5 55.8 0.0
06/10/2019 10:00 0.00 69.0 50.1 29.56 0.00 0.00 0.00 1.3 94.8 0.0
06/10/2019 09:00 0.00 65.0 56.1 29.57 0.00 0.00 0.00 0.5 61.3 0.0
06/10/2019 08:00 0.00 62.0 61.2 29.57 0.00 0.00 0.00 0.3 32.8 0.0
06/10/2019 07:00 0.00 59.0 70.6 29.57 0.00 0.00 0.00 0.0 0.0 0.0
06/10/2019 06:00 0.00 58.0 73.0 29.57 0.00 0.00 0.00 0.0 23.0 0.0
06/10/2019 05:00 0.00 59.0 71.8 29.57 0.00 0.00 0.00 0.0 0.0 0.0
06/10/2019 04:00 0.00 61.0 65.5 29.58 0.00 0.00 0.00 0.0 21.3 0.0
06/10/2019 03:00 0.00 63.0 59.3 29.59 0.00 0.00 0.00 0.0 0.0 0.0
06/10/2019 02:00 0.00 64.0 57.0 29.60 0.00 0.25 0.00 0.3 35.5 0.0
06/10/2019 01:00 0.00 67.0 41.7 29.61 0.00 2.25 0.00 0.0 47.5 0.0
06/10/2019 00:00 0.00 67.0 47.4 29.62 0.00 3.50 0.00 0.3 63.3 0.0
06/09/2019 23:00 0.00 68.0 45.3 29.61 0.00 0.00 0.00 0.3 40.5 0.0
06/09/2019 22:00 0.00 71.0 27.8 29.61 0.00 0.00 0.00 0.0 35.8 0.0
06/09/2019 21:00 0.00 75.0 19.2 29.61 0.00 2.50 0.00 0.5 76.5 0.0
06/09/2019 20:00 0.00 80.0 13.3 29.61 0.00 3.25 0.00 0.3 57.0 0.0
06/09/2019 19:00 0.00 89.0 2.6 29.61 0.00 3.75 0.00 0.3 53.0 0.0
06/09/2019 18:00 0.00 90.0 1.2 29.63 0.00 3.00 0.00 0.5 61.0 0.0
06/09/2019 17:00 0.00 88.0 3.7 29.64 0.00 2.25 0.00 0.0 51.0 0.0
06/09/2019 16:00 0.00 85.0 1.7 29.65 0.00 0.00 0.00 0.3 42.5 0.0
06/09/2019 15:00 0.00 81.0 3.4 29.67 0.00 0.00 0.00 0.0 43.5 0.0
06/09/2019 14:00 0.00 78.0 7.3 29.70 0.00 1.25 0.00 0.0 45.0 0.0
06/09/2019 13:00 0.00 74.0 9.2 29.70 0.00 1.50 0.00 0.0 43.5 0.0
06/09/2019 12:00 0.00 70.0 12.0 29.72 0.00 0.00 0.00 0.0 20.3 0.0
06/09/2019 11:00 0.00 67.0 16.6 29.72 0.25 2.00 0.00 0.0 9.8 0.0
06/09/2019 10:00 0.00 64.0 26.4 29.72 0.00 0.00 0.00 0.0 16.3 0.0
06/09/2019 09:00 0.00 60.0 48.3 29.71 0.00 0.00 0.00 0.0 0.0 0.0
06/09/2019 08:00 0.00 56.0 67.1 29.71 0.00 0.00 0.00 0.0 0.0 0.0
06/09/2019 07:00 0.00 54.0 73.5 29.70 0.00 0.00 0.00 0.0 0.0 0.0
06/09/2019 06:00 0.00 53.0 70.8 29.68 0.00 0.00 0.00 0.0 5.5 0.0
06/09/2019 05:00 0.00 54.0 72.2 29.66 0.00 0.00 0.00 0.0 0.0 0.0
06/09/2019 04:00 0.00 55.0 73.7 29.65 0.00 0.00 0.00 0.0 0.0 0.0
06/09/2019 03:00 0.00 55.0 74.2 29.65 0.00 0.00 0.00 0.0 0.0 0.0
06/09/2019 02:00 0.00 56.0 73.6 29.63 0.00 0.00 0.00 0.0 0.0 0.0
06/09/2019 01:00 0.00 59.0 65.7 29.62 0.00 0.00 0.00 0.0 0.0 0.0
06/09/2019 00:00 0.00 61.0 60.4 29.61 0.00 0.00 0.00 0.0 0.0 0.0
06/08/2019 23:00 0.00 65.0 48.8 29.60 0.00 0.00 0.00 0.0 0.0 0.0
06/08/2019 22:00 0.00 68.0 31.2 29.58 0.00 0.00 0.00 0.0 0.0 0.0
06/08/2019 21:00 0.00 74.0 7.9 29.55 0.00 5.00 0.00 0.0 9.0 0.0
06/08/2019 20:00 0.00 78.0 2.2 29.54 0.25 6.00 0.00 0.3 33.5 0.0
06/08/2019 19:00 0.00 85.0 0.0 29.52 2.00 10.25 0.00 0.0 44.3 0.0
06/08/2019 18:00 0.00 84.0 0.0 29.51 2.00 10.75 0.00 0.0 51.5 0.0
06/08/2019 17:00 0.00 83.0 0.0 29.51 2.75 11.75 0.00 0.0 51.5 0.0
06/08/2019 16:00 0.00 82.0 0.6 29.52 0.50 7.25 0.00 0.0 38.5 0.0
06/08/2019 15:00 0.00 79.0 2.3 29.52 0.00 4.50 0.00 0.3 50.3 0.0
06/08/2019 14:00 0.00 76.0 4.7 29.53 0.00 0.00 0.00 0.0 42.0 0.0
06/08/2019 13:00 0.00 72.0 9.5 29.54 0.00 0.00 0.00 0.0 40.5 0.0
06/08/2019 12:00 0.00 69.0 11.7 29.54 0.00 0.00 0.00 0.3 46.8 0.0
06/08/2019 11:00 0.00 67.0 15.1 29.53 0.00 0.00 0.00 0.3 40.5 0.0
06/08/2019 10:00 0.00 65.0 37.2 29.53 0.00 0.00 0.00 0.0 50.5 0.0
06/08/2019 09:00 0.00 62.0 52.0 29.52 0.00 0.00 0.00 0.8 49.0 0.0
06/08/2019 08:00 0.00 59.0 64.8 29.51 0.00 0.00 0.00 0.3 25.0 0.0
06/08/2019 07:00 0.00 55.0 70.5 29.48 0.00 0.00 0.00 0.0 22.0 0.0
06/08/2019 06:00 0.00 54.0 67.4 29.45 0.00 0.00 0.00 0.0 21.8 0.0
06/08/2019 05:00 0.00 57.0 62.4 29.42 0.00 0.00 0.00 0.0 6.5 0.0
06/08/2019 04:00 0.00 58.0 60.9 29.41 0.00 0.00 0.00 0.0 7.3 0.0
06/08/2019 03:00 0.00 60.0 64.2 29.39 0.00 0.00 0.00 0.0 0.0 0.0
06/08/2019 02:00 0.00 61.0 60.2 29.37 0.00 0.00 0.00 0.0 0.0 0.0
06/08/2019 01:00 0.00 63.0 51.8 29.35 0.00 0.00 0.00 0.0 7.5 0.0
06/08/2019 00:00 0.00 65.0 47.7 29.34 0.00 0.00 0.00 0.3 40.0 0.0
06/07/2019 23:00 0.00 67.0 49.5 29.32 0.00 0.00 0.00 0.8 73.3 0.0
06/07/2019 22:00 0.00 69.0 41.7 29.28 0.00 0.00 0.00 1.0 63.3 0.0
06/07/2019 21:00 0.00 72.0 27.3 29.26 0.00 0.00 0.00 0.0 22.3 0.0
06/07/2019 20:00 0.00 78.0 16.9 29.25 0.00 0.00 0.00 0.0 41.5 0.0
06/07/2019 19:00 0.00 85.0 7.8 29.25 0.00 0.00 0.00 0.3 58.5 0.0
06/07/2019 18:00 0.00 87.0 4.1 29.25 0.00 0.75 0.00 0.0 52.8 0.0
06/07/2019 17:00 0.00 87.0 2.5 29.26 0.00 1.50 0.00 0.0 39.8 0.0
06/07/2019 16:00 0.00 83.0 6.8 29.27 0.00 2.50 0.00 0.0 40.8 0.0
06/07/2019 15:00 0.00 81.0 7.2 29.29 0.25 6.75 0.00 0.3 52.8 0.0
06/07/2019 14:00 0.00 78.0 7.7 29.30 0.50 5.25 0.00 0.3 47.0 0.0
06/07/2019 13:00 0.00 75.0 11.1 29.31 0.00 5.75 0.00 0.0 45.5 0.0
06/07/2019 12:00 0.00 70.0 13.1 29.32 0.00 1.75 0.00 0.0 15.8 0.0
06/07/2019 11:00 0.00 67.0 33.6 29.32 0.00 3.50 0.00 0.3 42.8 0.0
06/07/2019 10:00 0.00 63.0 56.5 29.33 0.00 0.50 0.00 0.3 33.8 0.0
06/07/2019 09:00 0.00 58.0 70.6 29.31 0.00 0.25 0.00 0.3 37.5 0.0
06/07/2019 08:00 0.00 55.0 78.8 29.30 0.00 0.00 0.00 0.8 33.8 0.0
06/07/2019 07:00 0.00 52.0 78.3 29.28 0.00 0.00 0.00 0.0 0.0 0.0
06/07/2019 06:00 0.00 52.0 79.0 29.27 0.00 0.00 0.00 0.0 0.0 0.0
06/07/2019 05:00 0.00 53.0 78.7 29.26 0.00 0.00 0.00 0.0 0.0 0.0
06/07/2019 04:00 0.00 54.0 78.2 29.26 0.00 0.00 0.00 0.0 0.0 0.0
06/07/2019 03:00 0.00 56.0 77.3 29.26 0.00 0.00 0.00 0.0 0.0 0.0
06/07/2019 02:00 0.00 57.0 76.9 29.25 0.00 0.00 0.00 0.0 0.0 0.0
06/07/2019 01:00 0.00 59.0 73.3 29.23 0.00 0.00 0.00 0.0 26.3 0.0
06/07/2019 00:00 0.00 61.0 62.5 29.22 0.00 0.00 0.00 0.8 31.3 0.0
06/06/2019 23:00 0.00 62.0 59.1 29.20 0.00 0.00 0.00 0.0 8.3 0.0
06/06/2019 22:00 0.00 69.0 29.2 29.17 0.00 2.75 0.00 0.3 52.8 0.0
06/06/2019 21:00 0.00 73.0 26.6 29.16 0.75 7.25 0.00 0.0 34.8 0.0
06/06/2019 20:00 0.00 76.0 17.6 29.14 1.25 9.50 0.00 0.0 45.5 0.0
06/06/2019 19:00 0.00 83.0 9.0 29.13 1.00 8.25 0.00 0.0 38.5 0.0
06/06/2019 18:00 0.00 77.0 20.4 29.11 1.00 6.50 0.00 0.3 46.8 0.0
06/06/2019 17:00 0.00 83.0 12.2 29.11 1.00 6.25 0.00 0.3 64.8 0.0
06/06/2019 16:00 0.00 79.0 26.9 29.11 1.25 8.50 0.00 0.0 12.0 0.0
06/06/2019 15:00 0.00 74.0 54.0 29.10 0.50 6.25 0.00 0.3 56.8 0.0
06/06/2019 14:00 0.00 72.0 58.7 29.10 0.25 4.25 0.00 0.0 44.0 0.0
06/06/2019 13:00 0.00 73.0 57.8 29.09 0.25 4.25 0.00 0.0 38.5 0.0
06/06/2019 12:00 0.01 69.0 68.5 29.08 0.00 0.50 0.00 0.0 32.0 0.0
06/06/2019 11:00 0.00 65.0 77.0 29.07 0.00 3.75 0.00 0.0 31.5 0.0
06/06/2019 10:00 0.00 61.0 83.4 29.05 0.00 2.00 0.00 0.0 13.3 0.0
06/06/2019 09:00 0.00 61.0 85.2 29.03 0.00 2.25 0.00 0.0 0.0 0.0
06/06/2019 08:00 0.05 59.0 86.8 29.03 0.00 1.00 0.00 0.0 0.0 0.0
06/06/2019 07:00 0.05 58.0 86.6 29.02 0.75 6.25 0.00 0.0 0.0 0.0
06/06/2019 06:00 0.04 59.0 86.4 29.01 0.25 3.75 0.00 0.0 0.0 0.0
06/06/2019 05:00 0.04 59.0 86.2 29.02 0.25 3.50 0.00 0.0 0.0 0.0
06/06/2019 04:00 0.03 59.0 85.9 29.03 0.00 2.25 0.00 0.0 0.0 0.0
06/06/2019 03:00 0.01 59.0 86.0 29.06 1.25 4.50 0.00 0.0 0.0 0.0
06/06/2019 02:00 0.05 59.0 85.9 29.09 1.00 5.00 0.00 0.0 0.0 0.0
06/06/2019 01:00 0.05 59.0 85.5 29.12 0.75 3.75 0.00 0.0 0.0 0.0
06/06/2019 00:00 -- 60.0 85.7 -- -- -- -- -- -- --
06/05/2019 23:00 0.18 60.0 84.8 29.15 1.33 8.00 0.00 0.0 0.0 0.0
06/05/2019 22:00 0.08 61.0 81.5 29.15 0.00 2.75 0.00 0.0 0.0 0.0
06/05/2019 21:00 0.02 62.0 75.7 29.15 0.75 5.75 0.00 0.0 0.0 0.0
06/05/2019 20:00 0.00 66.0 71.8 29.15 0.25 3.25 0.00 0.0 0.0 0.0
06/05/2019 19:00 0.00 67.0 63.3 29.15 0.00 1.25 0.00 0.3 43.5 0.0
06/05/2019 18:00 0.00 68.0 57.5 29.15 0.00 1.00 0.00 0.8 77.3 0.0
06/05/2019 17:00 0.00 71.0 50.6 29.17 0.00 2.00 0.00 0.8 82.3 0.0
06/05/2019 16:00 0.00 74.0 41.1 29.18 0.25 4.50 0.00 0.0 54.0 0.0
06/05/2019 15:00 0.00 71.0 46.9 29.19 1.50 7.50 0.00 0.0 27.5 0.0
06/05/2019 14:00 0.00 68.0 52.4 29.21 1.00 7.75 0.00 0.3 40.5 0.0
06/05/2019 13:00 0.00 64.0 59.4 29.22 1.00 7.25 0.00 1.0 66.8 0.0
06/05/2019 12:00 0.00 59.0 70.6 29.22 1.00 6.75 0.00 0.3 43.8 0.0
06/05/2019 11:00 0.01 55.0 77.3 29.21 0.25 3.75 0.00 0.3 54.0 0.0
06/05/2019 10:00 0.00 54.0 82.8 29.23 0.00 0.00 0.00 0.3 37.3 0.0
06/05/2019 09:00 0.03 52.0 82.5 29.23 0.00 0.00 0.00 0.3 14.0 0.0
06/05/2019 08:00 0.00 52.0 83.2 29.21 0.00 0.00 0.00 0.0 0.0 0.0
06/05/2019 07:00 0.00 51.0 84.0 29.21 0.00 0.00 0.00 0.0 0.0 0.0
06/05/2019 06:00 0.06 51.0 83.8 29.21 0.00 0.75 0.00 0.0 13.0 0.0
06/05/2019 05:00 0.04 51.0 84.1 29.23 0.00 2.25 0.00 0.0 32.8 0.0
06/05/2019 04:00 0.05 51.0 83.7 29.25 0.00 3.00 0.00 0.3 46.5 0.0
06/05/2019 03:00 0.04 52.0 78.7 29.27 0.00 1.75 0.00 0.0 34.5 0.0
06/05/2019 02:00 0.00 54.0 65.3 29.30 1.00 7.00 0.00 0.8 84.3 0.0
06/05/2019 01:00 0.00 56.0 46.9 29.30 1.25 8.75 0.00 0.5 56.0 0.0
06/05/2019 00:00 0.00 57.0 41.7 29.31 0.50 6.75 0.00 0.3 57.3 0.0
06/04/2019 23:00 0.00 58.0 34.9 29.31 3.25 13.25 0.00 0.3 45.0 0.0
06/04/2019 22:00 0.00 59.0 25.2 29.30 4.25 16.75 0.00 0.3 46.8 0.0
06/04/2019 21:00 0.00 61.0 20.3 29.29 4.50 15.75 0.00 0.3 67.5 0.0
06/04/2019 20:00 0.00 62.0 17.9 29.29 2.25 11.00 0.00 0.3 56.5 0.0
06/04/2019 19:00 0.00 64.0 15.2 29.30 1.50 11.25 0.00 0.5 55.3 0.0
06/04/2019 18:00 0.00 67.0 10.3 29.30 2.75 14.00 0.00 0.3 44.3 0.0
06/04/2019 17:00 0.00 71.0 6.2 29.32 3.50 12.75 0.00 0.3 53.5 0.0
06/04/2019 16:00 0.00 67.0 8.3 29.32 3.50 12.50 0.00 0.0 28.8 0.0
06/04/2019 15:00 0.00 65.0 9.3 29.34 4.50 15.25 0.00 0.0 45.8 0.0
06/04/2019 14:00 0.00 63.0 11.3 29.36 4.50 16.25 0.00 0.0 43.8 0.0
06/04/2019 13:00 0.00 61.0 17.0 29.37 5.25 18.25 0.00 0.0 45.3 0.0
06/04/2019 12:00 -- -- -- -- -- -- -- -- -- --
06/04/2019 11:00 -- -- -- -- -- -- -- -- -- --
06/04/2019 10:00 -- -- -- -- -- -- -- -- -- --
06/04/2019 09:00 -- -- -- -- -- -- -- -- -- --
06/04/2019 08:00 -- -- -- -- -- -- -- -- -- --
06/04/2019 07:00 -- -- -- -- -- -- -- -- -- --
06/04/2019 06:00 -- -- -- -- -- -- -- -- -- --
06/04/2019 05:00 -- -- -- -- -- -- -- -- -- --
06/04/2019 04:00 -- -- -- -- -- -- -- -- -- --
06/04/2019 03:00 -- -- -- -- -- -- -- -- -- --
06/04/2019 02:00 -- -- -- -- -- -- -- -- -- --